createdAt,value
2018-05-18T00:01:28.599Z,17.60
2018-05-18T00:03:58.746Z,13.30
2018-05-18T00:06:27.852Z,17.23
2018-05-18T00:08:56.500Z,15.80
2018-05-18T00:11:26.283Z,24.13
2018-05-18T00:13:54.830Z,14.17
2018-05-18T00:16:23.847Z,9.80
2018-05-18T00:18:53.669Z,18.87
2018-05-18T00:21:22.603Z,13.57
2018-05-18T00:23:51.797Z,15.43
2018-05-18T00:26:20.381Z,22.67
2018-05-18T00:28:50.882Z,17.60
2018-05-18T00:31:19.874Z,12.30
2018-05-18T00:33:48.772Z,24.03
2018-05-18T00:36:17.452Z,15.17
2018-05-18T00:38:46.753Z,20.30
2018-05-18T00:41:15.600Z,17.10
2018-05-18T00:43:45.060Z,16.57
2018-05-18T00:46:13.859Z,14.63
2018-05-18T00:48:42.757Z,14.00
2018-05-18T00:51:12.284Z,17.67
2018-05-18T00:53:42.139Z,25.97
2018-05-18T00:56:11.274Z,19.30
2018-05-18T00:58:40.538Z,16.37
2018-05-18T01:01:09.687Z,19.93
2018-05-18T01:03:38.361Z,14.37
2018-05-18T01:06:07.799Z,15.60
2018-05-18T01:08:38.676Z,21.33
2018-05-18T01:11:07.845Z,17.97
2018-05-18T01:13:36.972Z,17.77
2018-05-18T01:16:05.930Z,20.90
2018-05-18T01:18:34.568Z,13.57
2018-05-18T01:21:03.463Z,20.90
2018-05-18T01:23:32.733Z,15.57
2018-05-18T01:26:01.767Z,15.33
2018-05-18T01:28:31.018Z,17.83
2018-05-18T01:30:59.797Z,18.10
2018-05-18T01:33:28.721Z,14.00
2018-05-18T01:35:57.704Z,20.47
2018-05-18T01:38:26.843Z,18.67
2018-05-18T01:40:55.511Z,15.10
2018-05-18T01:43:24.368Z,24.60
2018-05-18T01:45:53.393Z,22.63
2018-05-18T01:48:22.538Z,14.87
2018-05-18T01:50:51.386Z,20.50
2018-05-18T01:53:20.222Z,13.03
2018-05-18T01:55:49.876Z,16.30
2018-05-18T01:58:18.773Z,16.10
2018-05-18T02:00:47.667Z,21.00
2018-05-18T02:03:16.528Z,14.43
2018-05-18T02:05:45.186Z,16.73
2018-05-18T02:08:14.094Z,16.77
2018-05-18T02:10:43.478Z,13.93
2018-05-18T02:13:12.470Z,18.30
2018-05-18T02:15:41.000Z,21.80
2018-05-18T02:18:09.642Z,18.90
2018-05-18T02:20:39.398Z,12.33
2018-05-18T02:23:08.019Z,14.50
2018-05-18T02:25:36.750Z,22.20
2018-05-18T02:28:05.624Z,22.13
2018-05-18T02:30:34.809Z,17.40
2018-05-18T02:33:03.672Z,19.07
2018-05-18T02:35:32.445Z,14.27
2018-05-18T02:38:01.939Z,17.83
2018-05-18T02:40:31.070Z,16.77
2018-05-18T02:43:00.712Z,18.00
2018-05-18T02:45:29.628Z,10.77
2018-05-18T02:47:58.501Z,17.07
2018-05-18T02:50:27.845Z,16.63
2018-05-18T02:52:56.461Z,15.33
2018-05-18T02:55:25.034Z,20.10
2018-05-18T02:57:53.920Z,20.00
2018-05-18T03:00:23.331Z,22.23
2018-05-18T03:02:52.297Z,23.00
2018-05-18T03:05:21.443Z,14.00
2018-05-18T03:07:50.291Z,19.77
2018-05-18T03:10:19.464Z,19.03
2018-05-18T03:12:47.989Z,17.93
2018-05-18T03:15:16.902Z,17.00
2018-05-18T03:17:46.073Z,16.10
2018-05-18T03:20:14.390Z,28.73
2018-05-18T03:22:42.816Z,17.27
2018-05-18T03:25:11.731Z,26.83
2018-05-18T03:27:40.295Z,26.57
2018-05-18T03:30:08.890Z,18.67
2018-05-18T03:32:38.703Z,19.60
2018-05-18T03:35:07.514Z,20.97
2018-05-18T03:37:36.539Z,25.20
2018-05-18T03:40:04.822Z,22.00
2018-05-18T03:42:34.523Z,25.73
2018-05-18T03:45:03.160Z,21.70
2018-05-18T03:47:31.768Z,20.77
2018-05-18T03:50:00.564Z,20.10
2018-05-18T03:52:30.643Z,20.60
2018-05-18T03:54:59.664Z,20.17
2018-05-18T03:57:28.357Z,22.20
2018-05-18T03:59:57.287Z,31.60
2018-05-18T04:02:38.291Z,19.93
2018-05-18T04:05:19.577Z,22.17
2018-05-18T04:08:00.530Z,30.53
2018-05-18T04:10:29.092Z,27.20
2018-05-18T04:12:58.058Z,24.23
2018-05-18T04:15:27.539Z,26.43
2018-05-18T04:17:56.717Z,24.43
2018-05-18T04:20:25.276Z,23.93
2018-05-18T04:22:54.258Z,31.20
2018-05-18T04:25:23.361Z,30.43
2018-05-18T04:27:52.752Z,30.57
2018-05-18T04:30:21.398Z,25.20
2018-05-18T04:32:49.970Z,26.77
2018-05-18T04:35:18.322Z,25.83
2018-05-18T04:37:47.628Z,35.50
2018-05-18T04:40:18.289Z,25.63
2018-05-18T04:42:46.912Z,21.83
2018-05-18T04:45:15.625Z,32.57
2018-05-18T04:47:43.871Z,29.77
2018-05-18T04:50:12.435Z,33.43
2018-05-18T04:52:40.687Z,23.20
2018-05-18T04:55:09.783Z,23.47
2018-05-18T04:57:38.448Z,27.87
2018-05-18T05:00:06.909Z,26.80
2018-05-18T05:02:35.659Z,27.00
2018-05-18T05:05:04.010Z,31.87
2018-05-18T05:07:32.728Z,30.40
2018-05-18T05:10:02.359Z,32.13
2018-05-18T05:12:30.738Z,28.23
2018-05-18T05:14:59.436Z,23.90
2018-05-18T05:17:28.355Z,34.67
2018-05-18T05:19:57.381Z,28.10
2018-05-18T05:22:26.484Z,28.30
2018-05-18T05:24:55.237Z,31.03
2018-05-18T05:27:23.713Z,28.63
2018-05-18T05:29:52.120Z,27.40
2018-05-18T05:32:20.420Z,25.63
2018-05-18T05:34:48.975Z,28.87
2018-05-18T05:37:17.659Z,38.07
2018-05-18T05:39:46.555Z,29.77
2018-05-18T05:42:15.481Z,29.83
2018-05-18T05:44:44.695Z,29.33
2018-05-18T05:47:13.504Z,33.60
2018-05-18T05:49:41.459Z,30.73
2018-05-18T05:52:09.948Z,33.70
2018-05-18T05:54:38.615Z,43.47
2018-05-18T05:57:07.191Z,35.53
2018-05-18T05:59:35.949Z,35.37
2018-05-18T06:02:04.760Z,30.23
2018-05-18T06:04:34.011Z,29.97
2018-05-18T06:07:02.760Z,29.50
2018-05-18T06:09:30.768Z,30.30
2018-05-18T06:11:59.270Z,23.37
2018-05-18T06:14:28.114Z,36.37
2018-05-18T06:16:56.813Z,31.43
2018-05-18T06:19:24.897Z,30.90
2018-05-18T06:21:52.939Z,28.70
2018-05-18T06:24:21.901Z,33.63
2018-05-18T06:26:50.287Z,30.07
2018-05-18T06:29:18.312Z,30.33
2018-05-18T06:31:47.440Z,23.97
2018-05-18T06:34:16.460Z,26.97
2018-05-18T06:36:45.702Z,35.47
2018-05-18T06:39:14.086Z,32.10
2018-05-18T06:41:43.603Z,27.73
2018-05-18T06:44:12.034Z,33.73
2018-05-18T06:46:40.536Z,29.07
2018-05-18T06:49:08.745Z,28.30
2018-05-18T06:51:37.808Z,35.13
2018-05-18T06:54:06.497Z,31.27
2018-05-18T06:56:35.853Z,25.63
2018-05-18T06:59:04.210Z,29.73
2018-05-18T07:01:33.364Z,31.17
2018-05-18T07:04:02.125Z,35.10
2018-05-18T07:06:30.815Z,29.63
2018-05-18T07:09:00.005Z,27.03
2018-05-18T07:11:29.180Z,25.53
2018-05-18T07:13:58.088Z,31.03
2018-05-18T07:16:27.042Z,32.43
2018-05-18T07:18:57.127Z,27.10
2018-05-18T07:21:25.874Z,22.30
2018-05-18T07:23:54.760Z,25.33
2018-05-18T07:26:23.291Z,26.00
2018-05-18T07:28:51.770Z,22.37
2018-05-18T07:31:20.719Z,33.03
2018-05-18T07:33:49.349Z,29.23
2018-05-18T07:36:17.678Z,24.73
2018-05-18T07:38:45.917Z,27.57
2018-05-18T07:41:14.278Z,27.37
2018-05-18T07:43:43.424Z,24.80
2018-05-18T07:46:12.300Z,21.13
2018-05-18T07:48:40.913Z,24.53
2018-05-18T07:51:09.725Z,25.77
2018-05-18T07:53:38.248Z,24.73
2018-05-18T07:56:06.660Z,26.03
2018-05-18T07:58:35.251Z,26.77
2018-05-18T08:01:03.527Z,28.13
2018-05-18T08:03:32.074Z,24.87
2018-05-18T08:06:00.815Z,29.20
2018-05-18T08:08:29.200Z,28.03
2018-05-18T08:10:57.384Z,38.03
2018-05-18T08:13:25.652Z,29.67
2018-05-18T08:15:54.835Z,34.40
2018-05-18T08:18:23.332Z,39.23
2018-05-18T08:20:52.173Z,30.90
2018-05-18T08:23:21.121Z,36.00
2018-05-18T08:25:49.507Z,37.10
2018-05-18T08:28:18.181Z,37.03
2018-05-18T08:30:59.071Z,34.90
2018-05-18T08:33:27.923Z,42.97
2018-05-18T08:35:56.665Z,32.03
2018-05-18T08:38:25.400Z,35.90
2018-05-18T08:40:54.575Z,38.63
2018-05-18T08:43:23.679Z,32.73
2018-05-18T08:45:52.994Z,40.27
2018-05-18T08:48:22.179Z,36.20
2018-05-18T08:50:54.108Z,41.87
2018-05-18T08:53:23.561Z,38.60
2018-05-18T08:55:52.311Z,48.53
2018-05-18T08:58:21.445Z,41.03
2018-05-18T09:00:50.052Z,43.83
2018-05-18T09:03:18.103Z,41.57
2018-05-18T09:05:46.995Z,40.43
2018-05-18T09:08:15.983Z,39.67
2018-05-18T09:10:44.734Z,44.00
2018-05-18T09:13:14.187Z,47.57
2018-05-18T09:15:43.149Z,39.67
2018-05-18T09:18:11.397Z,43.73
2018-05-18T09:20:40.849Z,39.07
2018-05-18T09:23:10.150Z,44.73
2018-05-18T09:25:39.049Z,46.33
2018-05-18T09:28:07.807Z,35.50
2018-05-18T09:30:36.820Z,43.43
2018-05-18T09:33:06.164Z,42.87
2018-05-18T09:35:34.991Z,41.37
2018-05-18T09:38:04.208Z,42.97
2018-05-18T09:40:33.270Z,44.23
2018-05-18T09:43:01.438Z,44.50
2018-05-18T09:45:30.248Z,37.60
2018-05-18T09:47:58.594Z,44.30
2018-05-18T09:50:27.135Z,36.07
2018-05-18T09:52:55.409Z,39.40
2018-05-18T09:55:23.982Z,38.63
2018-05-18T09:57:52.604Z,38.20
2018-05-18T10:00:21.241Z,36.07
2018-05-18T10:02:49.491Z,41.57
2018-05-18T10:05:17.668Z,40.10
2018-05-18T10:07:46.194Z,45.90
2018-05-18T10:10:14.286Z,38.90
2018-05-18T10:12:43.046Z,39.80
2018-05-18T10:15:12.529Z,37.40
2018-05-18T10:17:41.236Z,37.43
2018-05-18T10:20:10.363Z,40.80
2018-05-18T10:22:39.319Z,44.13
2018-05-18T10:25:08.359Z,32.97
2018-05-18T10:27:36.891Z,39.43
2018-05-18T10:30:05.284Z,34.97
2018-05-18T10:32:33.807Z,40.30
2018-05-18T10:35:02.370Z,38.40
2018-05-18T10:37:30.867Z,36.50
2018-05-18T10:39:58.731Z,29.27
2018-05-18T10:42:27.690Z,39.63
2018-05-18T10:44:55.990Z,38.83
2018-05-18T10:47:24.378Z,39.67
2018-05-18T10:49:53.225Z,33.40
2018-05-18T10:52:21.577Z,34.93
2018-05-18T10:54:49.784Z,38.03
2018-05-18T10:57:18.126Z,42.80
2018-05-18T10:59:46.954Z,40.37
2018-05-18T11:02:16.019Z,49.53
2018-05-18T11:04:45.333Z,48.00
2018-05-18T11:07:13.816Z,45.63
2018-05-18T11:09:42.713Z,43.43
2018-05-18T11:12:11.057Z,42.43
2018-05-18T11:14:39.973Z,46.63
2018-05-18T11:17:09.271Z,41.70
2018-05-18T11:19:38.145Z,41.70
2018-05-18T11:22:07.385Z,42.33
2018-05-18T11:24:36.296Z,36.27
2018-05-18T11:27:05.300Z,43.57
2018-05-18T11:29:33.873Z,41.93
2018-05-18T11:32:02.450Z,32.23
2018-05-18T11:34:30.892Z,39.40
2018-05-18T11:37:01.963Z,50.47
2018-05-18T11:39:30.280Z,40.90
2018-05-18T11:41:58.753Z,43.30
2018-05-18T11:44:27.504Z,34.20
2018-05-18T11:46:56.544Z,42.00
2018-05-18T11:49:25.182Z,41.90
2018-05-18T11:51:54.269Z,45.40
2018-05-18T11:54:22.857Z,44.67
2018-05-18T11:56:51.758Z,47.20
2018-05-18T11:59:20.860Z,48.03
2018-05-18T12:01:49.241Z,45.57
2018-05-18T12:04:18.534Z,45.27
2018-05-18T12:06:47.965Z,40.33
2018-05-18T12:09:17.053Z,44.00
2018-05-18T12:11:45.782Z,46.90
2018-05-18T12:14:14.388Z,34.30
2018-05-18T12:16:43.211Z,39.07
2018-05-18T12:19:12.599Z,44.13
2018-05-18T12:21:41.542Z,45.73
2018-05-18T12:24:10.113Z,45.17
2018-05-18T12:26:39.756Z,46.43
2018-05-18T12:29:08.123Z,41.50
2018-05-18T12:31:36.759Z,50.17
2018-05-18T12:34:05.317Z,51.70
2018-05-18T12:36:34.643Z,44.43
2018-05-18T12:39:03.647Z,40.70
2018-05-18T12:41:32.196Z,44.63
2018-05-18T12:44:00.666Z,49.30
2018-05-18T12:46:29.717Z,44.00
2018-05-18T12:48:59.019Z,45.30
2018-05-18T12:51:28.198Z,47.73
2018-05-18T12:53:56.977Z,49.23
2018-05-18T12:56:25.597Z,52.27
2018-05-18T12:58:54.509Z,42.30
2018-05-18T13:01:23.738Z,48.13
2018-05-18T13:03:52.593Z,42.97
2018-05-18T13:06:22.058Z,51.90
2018-05-18T13:08:51.021Z,35.17
2018-05-18T13:11:19.620Z,40.70
2018-05-18T13:13:48.687Z,39.43
2018-05-18T13:16:17.271Z,47.67
2018-05-18T13:18:46.217Z,38.77
2018-05-18T13:21:14.961Z,48.37
2018-05-18T13:23:43.573Z,49.70
2018-05-18T13:26:12.235Z,40.30
2018-05-18T13:28:41.005Z,42.27
2018-05-18T13:31:09.710Z,40.17
2018-05-18T13:33:38.374Z,45.57
2018-05-18T13:36:07.432Z,47.07
2018-05-18T13:38:36.204Z,54.50
2018-05-18T13:41:04.263Z,48.80
2018-05-18T13:43:33.511Z,48.53
2018-05-18T13:46:02.551Z,48.57
2018-05-18T13:48:32.501Z,44.13
2018-05-18T13:51:01.667Z,42.40
2018-05-18T13:53:30.464Z,51.97
2018-05-18T13:55:59.561Z,44.27
2018-05-18T13:58:29.101Z,46.50
2018-05-18T14:00:57.499Z,41.17
2018-05-18T14:03:26.324Z,40.67
2018-05-18T14:05:54.875Z,36.30
2018-05-18T14:08:24.557Z,42.30
2018-05-18T14:10:53.314Z,49.03
2018-05-18T14:13:21.289Z,51.27
2018-05-18T14:15:49.997Z,42.90
2018-05-18T14:18:19.503Z,41.50
2018-05-18T14:20:49.138Z,41.43
2018-05-18T14:23:17.708Z,37.83
2018-05-18T14:25:46.300Z,32.07
2018-05-18T14:28:15.373Z,39.57
2018-05-18T14:30:44.613Z,39.90
2018-05-18T14:33:13.468Z,42.97
2018-05-18T14:35:42.250Z,43.17
2018-05-18T14:38:11.528Z,46.77
2018-05-18T14:40:40.550Z,44.43
2018-05-18T14:43:08.826Z,36.17
2018-05-18T14:45:37.552Z,39.27
2018-05-18T14:48:05.660Z,38.60
2018-05-18T14:50:34.777Z,43.50
2018-05-18T14:53:03.252Z,42.57
2018-05-18T14:55:31.829Z,43.70
2018-05-18T14:58:00.782Z,37.20
2018-05-18T15:00:30.188Z,34.93
2018-05-18T15:02:59.052Z,34.10
2018-05-18T15:05:28.162Z,35.93
2018-05-18T15:07:56.908Z,32.90
2018-05-18T15:10:25.497Z,38.60
2018-05-18T15:12:54.856Z,37.27
2018-05-18T15:15:23.767Z,30.83
2018-05-18T15:17:52.177Z,40.80
2018-05-18T15:20:20.883Z,43.70
2018-05-18T15:22:49.469Z,37.73
2018-05-18T15:25:18.552Z,33.83
2018-05-18T15:27:48.307Z,31.27
2018-05-18T15:30:16.690Z,31.63
2018-05-18T15:32:45.075Z,30.70
2018-05-18T15:35:13.893Z,30.20
2018-05-18T15:37:42.813Z,27.70
2018-05-18T15:40:11.455Z,26.67
2018-05-18T15:42:40.260Z,27.40
2018-05-18T15:45:09.051Z,27.73
2018-05-18T15:47:37.641Z,25.00
2018-05-18T15:50:06.460Z,27.03
2018-05-18T15:52:34.819Z,26.27
2018-05-18T15:55:04.509Z,28.80
2018-05-18T15:57:33.466Z,23.50
2018-05-18T16:00:02.679Z,27.67
2018-05-18T16:02:31.743Z,27.97
2018-05-18T16:05:00.435Z,19.90
2018-05-18T16:07:29.769Z,20.70
2018-05-18T16:09:58.385Z,22.40
2018-05-18T16:12:27.269Z,24.53
2018-05-18T16:14:56.998Z,28.80
2018-05-18T16:17:25.361Z,24.33
2018-05-18T16:19:53.983Z,25.90
2018-05-18T16:22:22.921Z,23.77
2018-05-18T16:24:53.930Z,19.33
2018-05-18T16:27:22.742Z,25.10
2018-05-18T16:29:52.796Z,21.67
2018-05-18T16:32:20.811Z,20.43
2018-05-18T16:34:48.972Z,22.80
2018-05-18T16:37:17.739Z,25.87
2018-05-18T16:39:46.101Z,19.50
2018-05-18T16:42:14.846Z,20.77
2018-05-18T16:44:43.777Z,24.90
2018-05-18T16:47:12.458Z,24.70
2018-05-18T16:49:41.404Z,25.17
2018-05-18T16:52:09.855Z,21.00
2018-05-18T16:54:37.962Z,22.20
2018-05-18T16:57:06.750Z,20.43
2018-05-18T16:59:35.390Z,20.80
2018-05-18T17:02:04.676Z,19.37
2018-05-18T17:04:33.274Z,18.97
2018-05-18T17:07:02.203Z,20.57
2018-05-18T17:09:30.353Z,25.67
2018-05-18T17:11:59.054Z,19.43
2018-05-18T17:14:28.279Z,22.07
2018-05-18T17:16:57.171Z,19.07
2018-05-18T17:19:27.061Z,19.70
2018-05-18T17:21:55.305Z,17.43
2018-05-18T17:24:23.736Z,21.50
2018-05-18T17:26:52.161Z,23.27
2018-05-18T17:29:21.175Z,21.10
2018-05-18T17:31:49.197Z,16.97
2018-05-18T17:34:17.181Z,23.37
2018-05-18T17:36:45.667Z,19.00
2018-05-18T17:39:14.193Z,17.03
2018-05-18T17:41:42.248Z,19.60
2018-05-18T17:44:10.605Z,16.87
2018-05-18T17:46:39.527Z,21.30
2018-05-18T17:49:08.321Z,17.67
2018-05-18T17:51:37.370Z,19.67
2018-05-18T17:54:05.830Z,19.00
2018-05-18T17:56:34.295Z,16.00
2018-05-18T17:59:02.414Z,22.30
2018-05-18T18:01:30.895Z,19.10
2018-05-18T18:03:59.721Z,17.20
2018-05-18T18:06:28.324Z,17.80
2018-05-18T18:08:56.808Z,18.70
2018-05-18T18:11:25.299Z,16.73
2018-05-18T18:13:53.768Z,14.20
2018-05-18T18:16:22.686Z,15.30
2018-05-18T18:18:50.641Z,17.80
2018-05-18T18:21:19.089Z,14.70
2018-05-18T18:23:47.841Z,18.03
2018-05-18T18:26:16.434Z,14.93
2018-05-18T18:28:45.469Z,13.20
2018-05-18T18:31:14.699Z,14.37
2018-05-18T18:33:43.959Z,14.80
2018-05-18T18:36:12.883Z,21.10
2018-05-18T18:38:40.929Z,15.40
2018-05-18T18:41:09.986Z,14.60
2018-05-18T18:43:39.708Z,16.10
2018-05-18T18:46:08.059Z,15.33
2018-05-18T18:48:36.264Z,16.00
2018-05-18T18:51:05.802Z,20.73
2018-05-18T18:53:34.409Z,16.67
2018-05-18T18:56:03.529Z,13.80
2018-05-18T18:58:31.709Z,15.23
2018-05-18T19:00:59.869Z,17.17
2018-05-18T19:03:28.449Z,17.13
2018-05-18T19:05:57.883Z,19.87
2018-05-18T19:08:31.993Z,19.13
2018-05-18T19:11:01.403Z,17.07
2018-05-18T19:13:29.357Z,16.50
2018-05-18T19:16:01.073Z,14.80
2018-05-18T19:18:33.007Z,13.40
2018-05-18T19:21:03.951Z,15.50
2018-05-18T19:23:38.292Z,15.77
2018-05-18T19:28:51.291Z,14.70
2018-05-18T19:31:20.889Z,15.30
2018-05-18T19:33:53.920Z,18.50
2018-05-18T19:36:35.517Z,15.23
2018-05-18T19:39:03.564Z,12.90
2018-05-18T19:41:31.838Z,15.80
2018-05-18T19:44:00.627Z,17.77
2018-05-18T19:46:28.852Z,16.17
2018-05-18T19:48:58.128Z,15.57
2018-05-18T19:51:26.697Z,22.67
2018-05-18T19:53:55.287Z,15.43
2018-05-18T19:56:23.859Z,18.13
2018-05-18T19:58:52.263Z,13.97
2018-05-18T20:01:21.047Z,15.77
2018-05-18T20:03:49.191Z,15.67
2018-05-18T20:06:18.118Z,19.53
2018-05-18T20:08:46.410Z,16.20
2018-05-18T20:11:14.917Z,17.20
2018-05-18T20:13:43.151Z,23.20
2018-05-18T20:16:12.625Z,16.03
2018-05-18T20:18:41.033Z,15.10
2018-05-18T20:21:09.974Z,18.47
2018-05-18T20:23:38.817Z,17.60
2018-05-18T20:26:07.531Z,17.07
2018-05-18T20:28:36.020Z,15.40
2018-05-18T20:31:05.026Z,18.63
2018-05-18T20:33:34.098Z,16.60
2018-05-18T20:36:02.989Z,17.13
2018-05-18T20:38:32.525Z,18.37
2018-05-18T20:41:01.552Z,24.57
2018-05-18T20:43:30.218Z,19.93
2018-05-18T20:45:59.111Z,15.50
2018-05-18T20:48:27.076Z,20.07
2018-05-18T20:50:55.406Z,16.80
2018-05-18T20:53:23.751Z,18.67
2018-05-18T20:55:51.900Z,21.33
2018-05-18T20:58:20.416Z,19.20
2018-05-18T21:00:48.459Z,16.53
2018-05-18T21:03:17.523Z,20.43
2018-05-18T21:05:47.112Z,16.03
2018-05-18T21:08:15.310Z,17.90
2018-05-18T21:10:43.488Z,15.50
2018-05-18T21:13:12.109Z,24.10
2018-05-18T21:15:41.317Z,17.00
2018-05-18T21:18:09.947Z,18.57
2018-05-18T21:20:39.311Z,18.43
2018-05-18T21:23:07.651Z,18.33
2018-05-18T21:25:36.357Z,19.70
2018-05-18T21:28:05.025Z,17.83
2018-05-18T21:30:33.478Z,16.97
2018-05-18T21:33:02.075Z,16.10
2018-05-18T21:35:30.526Z,15.97
2018-05-18T21:37:58.901Z,19.20
2018-05-18T21:40:27.643Z,18.80
2018-05-18T21:42:56.879Z,17.47
2018-05-18T21:45:26.437Z,21.63
2018-05-18T21:47:55.079Z,22.23
2018-05-18T21:50:23.525Z,18.53
2018-05-18T21:52:52.042Z,16.83
2018-05-18T21:55:19.708Z,18.20
2018-05-18T21:57:48.604Z,17.50
2018-05-18T22:00:17.615Z,20.40
2018-05-18T22:02:46.057Z,17.67
2018-05-18T22:05:14.517Z,16.90
2018-05-18T22:07:42.849Z,18.53
2018-05-18T22:10:11.812Z,16.70
2018-05-18T22:12:40.376Z,17.70
2018-05-18T22:15:08.985Z,17.00
2018-05-18T22:17:37.983Z,21.17
2018-05-18T22:20:06.857Z,16.17
2018-05-18T22:22:34.777Z,16.20
2018-05-18T22:25:03.389Z,22.93
2018-05-18T22:27:31.936Z,20.20
2018-05-18T22:30:00.517Z,16.13
2018-05-18T22:32:29.030Z,18.13
2018-05-18T22:34:57.283Z,18.77
2018-05-18T22:37:25.832Z,21.70
2018-05-18T22:39:55.207Z,15.93
2018-05-18T22:42:25.156Z,17.30
2018-05-18T22:44:53.616Z,19.10
2018-05-18T22:47:21.332Z,22.93
2018-05-18T22:49:50.598Z,23.97
2018-05-18T22:52:19.445Z,18.87
2018-05-18T22:54:49.400Z,20.17
2018-05-18T22:57:18.277Z,21.40
2018-05-18T22:59:47.139Z,16.00
2018-05-18T23:02:15.567Z,22.60
2018-05-18T23:04:44.300Z,19.70
2018-05-18T23:07:13.250Z,17.77
2018-05-18T23:09:42.181Z,16.70
2018-05-18T23:12:10.955Z,18.73
2018-05-18T23:14:39.303Z,18.83
2018-05-18T23:17:07.559Z,18.90
2018-05-18T23:19:35.985Z,17.67
2018-05-18T23:22:04.559Z,18.63
2018-05-18T23:24:34.079Z,19.10
2018-05-18T23:27:02.868Z,19.90
2018-05-18T23:29:31.831Z,19.07
2018-05-18T23:32:01.484Z,24.30
2018-05-18T23:34:30.834Z,20.80
2018-05-18T23:37:00.071Z,18.90
2018-05-18T23:39:28.977Z,25.13
2018-05-18T23:41:57.553Z,19.60
2018-05-18T23:44:26.120Z,19.10
2018-05-18T23:46:54.747Z,26.33
2018-05-18T23:49:23.937Z,21.70
2018-05-18T23:51:52.851Z,22.37
2018-05-18T23:54:21.544Z,21.27
2018-05-18T23:56:50.302Z,18.53
2018-05-18T23:59:19.249Z,18.97
